Time;durP1;ratioP1;P1;durP2;ratioP2;P2;SDS_P1;SDS_P2;PMS_P1;PMS_P2;Temp;Humidity;BMP_temperature;BMP_pressure;BME280_temperature;BME280_humidity;BME280_pressure;Samples;Min_cycle;Max_cycle;Signal;HPM_P1;HPM_P2
2022/11/12 00:01:51;;;;;;;1.20;1.20;;;;;;;12.00;100.00;101708.84;5079291;28;20200;-72
2022/11/12 00:04:18;;;;;;;1.13;1.13;;;;;;;12.10;100.00;101719.63;5070979;28;20276;-72
2022/11/12 00:06:46;;;;;;;0.60;0.60;;;;;;;12.09;100.00;101723.06;5088973;28;20198;-74
2022/11/12 00:09:13;;;;;;;0.50;0.50;;;;;;;12.09;100.00;101719.56;5090897;28;20651;-73
2022/11/12 00:11:40;;;;;;;0.70;0.70;;;;;;;11.98;100.00;101721.81;5090973;28;20198;-72
2022/11/12 00:14:06;;;;;;;0.75;0.75;;;;;;;12.09;100.00;101720.47;5090164;28;20234;-72
2022/11/12 00:16:33;;;;;;;0.95;0.95;;;;;;;11.92;100.00;101682.56;5078535;28;20209;-72
2022/11/12 00:19:00;;;;;;;0.60;0.60;;;;;;;12.03;100.00;101696.84;5071031;28;20202;-73
2022/11/12 00:21:27;;;;;;;0.70;0.70;;;;;;;12.03;100.00;101694.22;5071054;28;20260;-72
2022/11/12 00:23:55;;;;;;;1.30;1.30;;;;;;;12.22;100.00;101712.25;5085397;28;20205;-72
2022/11/12 00:26:22;;;;;;;0.82;0.82;;;;;;;12.20;100.00;101711.28;5076505;28;20202;-72
2022/11/12 00:28:48;;;;;;;1.50;1.50;;;;;;;12.16;100.00;101705.97;5085295;28;20209;-73
2022/11/12 00:31:15;;;;;;;1.40;1.40;;;;;;;12.30;100.00;101716.00;5079755;28;20324;-73
2022/11/12 00:33:43;;;;;;;1.08;1.08;;;;;;;12.44;100.00;101719.06;5090331;28;20252;-73
2022/11/12 00:36:10;;;;;;;0.60;0.60;;;;;;;12.39;100.00;101716.31;5051419;28;20195;-73
2022/11/12 00:38:37;;;;;;;0.68;0.68;;;;;;;12.31;100.00;101728.16;5070755;28;20206;-73
2022/11/12 00:41:05;;;;;;;0.43;0.43;;;;;;;12.47;100.00;101718.28;5074415;28;20186;-73
2022/11/12 00:43:33;;;;;;;0.60;0.60;;;;;;;12.27;100.00;101695.06;5071004;28;20686;-73
2022/11/12 00:45:59;;;;;;;0.60;0.60;;;;;;;12.15;100.00;101694.66;5072793;28;20550;-73
2022/11/12 00:48:26;;;;;;;0.60;0.60;;;;;;;12.29;100.00;101719.44;5070779;28;20202;-73
2022/11/12 00:50:59;;;;;;;0.70;0.70;;;;;;;12.40;100.00;101699.88;5084281;28;20206;-73
2022/11/12 00:53:26;;;;;;;0.70;0.70;;;;;;;12.25;100.00;101714.06;5076096;28;20201;-73
2022/11/12 00:55:53;;;;;;;1.00;1.00;;;;;;;12.18;100.00;101705.16;5085549;28;20221;-73
2022/11/12 00:58:21;;;;;;;0.60;0.60;;;;;;;12.33;100.00;101721.31;5094806;28;20201;-73
2022/11/12 01:00:48;;;;;;;1.27;1.17;;;;;;;12.22;100.00;101717.44;5047340;28;20202;-72
2022/11/12 01:03:14;;;;;;;0.75;0.75;;;;;;;12.14;100.00;101713.69;5075283;28;20182;-73
2022/11/12 01:05:41;;;;;;;3.72;3.35;;;;;;;12.04;100.00;101696.00;5074520;28;20207;-73
2022/11/12 01:08:08;;;;;;;0.98;0.98;;;;;;;12.16;100.00;101714.66;5047543;28;20206;-73
2022/11/12 01:10:35;;;;;;;1.10;1.10;;;;;;;12.18;100.00;101707.78;5042621;28;20202;-73
2022/11/12 01:13:02;;;;;;;0.60;0.60;;;;;;;12.11;100.00;101707.50;5094403;28;20194;-73
2022/11/12 01:15:30;;;;;;;0.70;0.70;;;;;;;12.23;100.00;101707.94;5094097;28;20234;-73
2022/11/12 01:17:57;;;;;;;0.93;0.90;;;;;;;12.19;100.00;101700.84;5092924;28;20195;-73
2022/11/12 01:20:24;;;;;;;0.60;0.60;;;;;;;12.21;100.00;101683.56;5047012;28;20204;-73
2022/11/12 01:22:50;;;;;;;0.80;0.80;;;;;;;12.24;100.00;101689.75;5051804;28;20715;-73
2022/11/12 01:25:17;;;;;;;0.60;0.60;;;;;;;12.32;100.00;101710.84;5077056;28;20212;-73
2022/11/12 01:27:44;;;;;;;0.60;0.60;;;;;;;12.32;100.00;101709.13;5092944;28;20209;-73
2022/11/12 01:30:11;;;;;;;0.63;0.63;;;;;;;12.26;100.00;101703.72;5090615;28;20686;-73
2022/11/12 01:32:40;;;;;;;0.90;0.90;;;;;;;12.30;100.00;101697.78;5092478;28;20249;-73
2022/11/12 01:35:07;;;;;;;0.60;0.60;;;;;;;12.16;100.00;101675.63;5093629;28;20602;-73
2022/11/12 01:37:33;;;;;;;0.60;0.60;;;;;;;12.18;100.00;101712.97;5093715;28;20680;-73
2022/11/12 01:40:00;;;;;;;0.70;0.70;;;;;;;12.19;100.00;101695.66;5080673;28;20697;-73
2022/11/12 01:42:29;;;;;;;0.60;0.60;;;;;;;12.31;100.00;101706.47;5085349;28;20689;-73
2022/11/12 01:44:56;;;;;;;0.60;0.60;;;;;;;12.25;100.00;101699.34;5073417;28;20210;-73
2022/11/12 01:47:28;;;;;;;0.60;0.60;;;;;;;12.30;100.00;101700.41;5054556;28;20210;-73
2022/11/12 01:50:00;;;;;;;0.50;0.50;;;;;;;12.24;100.00;101689.75;5077475;28;20594;-72
2022/11/12 01:52:31;;;;;;;0.60;0.60;;;;;;;12.07;100.00;101680.50;5084787;28;20810;-72
2022/11/12 01:55:04;;;;;;;0.60;0.60;;;;;;;12.06;100.00;101699.53;5088791;28;20214;-73
2022/11/12 01:57:37;;;;;;;0.60;0.60;;;;;;;11.95;100.00;101679.22;5093178;28;20206;-72
2022/11/12 02:00:09;;;;;;;0.50;0.50;;;;;;;11.44;100.00;101601.16;5081525;28;20585;-73
2022/11/12 02:02:37;;;;;;;0.60;0.60;;;;;;;11.71;100.00;101666.22;5073039;28;20207;-73
2022/11/12 02:05:09;;;;;;;0.90;0.90;;;;;;;11.52;100.00;101666.38;5085057;28;20613;-73
2022/11/12 02:07:37;;;;;;;0.60;0.60;;;;;;;11.56;100.00;101665.66;5078867;28;20194;-73
2022/11/12 02:10:07;;;;;;;0.73;0.73;;;;;;;11.55;100.00;101676.88;5080667;28;20194;-73
2022/11/12 02:15:21;;;;;;;0.70;0.70;;;;;;;11.53;100.00;101679.41;5050226;28;20240;-73
2022/11/12 02:17:48;;;;;;;0.75;0.75;;;;;;;11.64;100.00;101679.78;5046930;28;20213;-73
2022/11/12 02:20:17;;;;;;;0.80;0.80;;;;;;;11.55;100.00;101656.09;5032117;28;20196;-74
2022/11/12 02:22:45;;;;;;;0.70;0.70;;;;;;;11.60;100.00;101658.00;5034601;28;20204;-74
2022/11/12 02:25:14;;;;;;;0.60;0.60;;;;;;;11.67;100.00;101677.28;5030335;28;20244;-74
2022/11/12 02:27:41;;;;;;;0.50;0.50;;;;;;;11.73;100.00;101672.38;5030516;28;20204;-74
2022/11/12 02:30:08;;;;;;;0.70;0.70;;;;;;;11.79;100.00;101667.38;5030238;28;20196;-72
2022/11/12 02:32:35;;;;;;;0.60;0.60;;;;;;;11.74;100.00;101672.41;5030057;28;20767;-72
2022/11/12 02:35:02;;;;;;;0.70;0.70;;;;;;;11.70;100.00;101673.09;5041312;28;20699;-73
2022/11/12 02:37:28;;;;;;;2.75;1.33;;;;;;;11.66;100.00;101665.16;5049764;28;20223;-73
2022/11/12 02:39:56;;;;;;;0.90;0.90;;;;;;;11.73;100.00;101667.19;5049902;28;20200;-72
2022/11/12 02:42:23;;;;;;;0.75;0.75;;;;;;;11.57;100.00;101668.28;5050148;28;20195;-72
2022/11/12 02:44:50;;;;;;;0.60;0.60;;;;;;;11.61;100.00;101677.97;4989626;28;20615;-72
2022/11/12 02:47:17;;;;;;;0.70;0.70;;;;;;;11.56;100.00;101673.44;5038384;28;20634;-73
2022/11/12 02:49:44;;;;;;;0.60;0.60;;;;;;;11.60;100.00;101686.59;5034745;28;20645;-72
2022/11/12 02:52:11;;;;;;;0.60;0.60;;;;;;;11.55;100.00;101684.66;5054854;28;20574;-72
2022/11/12 02:54:38;;;;;;;0.80;0.80;;;;;;;11.54;100.00;101677.69;5072043;28;20194;-72
2022/11/12 02:57:06;;;;;;;0.60;0.60;;;;;;;11.63;100.00;101680.63;5046238;28;20206;-72
2022/11/12 02:59:33;;;;;;;3.47;3.20;;;;;;;11.56;100.00;101678.66;5091458;28;20197;-72
2022/11/12 03:01:59;;;;;;;0.73;0.73;;;;;;;11.43;100.00;101680.78;5091684;28;20198;-72
2022/11/12 03:04:26;;;;;;;0.60;0.60;;;;;;;11.56;100.00;101674.31;5076624;28;20199;-72
2022/11/12 03:06:53;;;;;;;0.57;0.57;;;;;;;11.54;100.00;101680.28;5071168;28;20256;-73
2022/11/12 03:09:20;;;;;;;0.60;0.60;;;;;;;11.56;100.00;101678.66;5071375;28;20666;-72
2022/11/12 03:11:47;;;;;;;0.60;0.60;;;;;;;11.57;100.00;101685.59;5076411;28;20581;-73
2022/11/12 03:14:15;;;;;;;0.80;0.80;;;;;;;11.60;100.00;101676.19;5084439;28;20190;-72
2022/11/12 03:16:42;;;;;;;0.60;0.60;;;;;;;10.89;100.00;101556.72;5090939;28;20220;-73
2022/11/12 03:19:08;;;;;;;0.70;0.70;;;;;;;11.60;100.00;101678.78;5081812;28;20203;-72
2022/11/12 03:21:35;;;;;;;0.60;0.60;;;;;;;11.60;100.00;101680.50;5084438;28;20213;-73
2022/11/12 03:24:02;;;;;;;0.60;0.60;;;;;;;11.54;100.00;101686.38;5080723;28;20647;-73
2022/11/12 03:26:29;;;;;;;0.50;0.50;;;;;;;11.50;100.00;101678.41;5071587;28;20678;-73
2022/11/12 03:28:55;;;;;;;0.63;0.63;;;;;;;11.39;100.00;101683.19;5074762;28;20556;-72
2022/11/12 03:31:24;;;;;;;0.50;0.50;;;;;;;11.43;100.00;101688.56;5071582;28;20195;-72
2022/11/12 03:33:50;;;;;;;0.80;0.80;;;;;;;11.44;100.00;101682.56;5074341;28;20219;-73
2022/11/12 03:36:17;;;;;;;0.80;0.80;;;;;;;11.48;100.00;101682.66;5066196;28;20695;-73
2022/11/12 03:38:44;;;;;;;0.60;0.60;;;;;;;11.42;100.00;101681.59;5071514;28;20195;-72
2022/11/12 03:41:11;;;;;;;0.77;0.77;;;;;;;11.26;100.00;101678.38;5089308;28;20225;-72
2022/11/12 03:43:38;;;;;;;0.80;0.80;;;;;;;11.18;100.00;101685.00;5091312;28;20198;-73
2022/11/12 03:46:05;;;;;;;0.90;0.90;;;;;;;11.11;100.00;101686.47;5074632;28;20224;-73
2022/11/12 03:48:33;;;;;;;0.70;0.70;;;;;;;11.16;100.00;101682.34;5085944;28;20826;-73
2022/11/12 03:51:00;;;;;;;0.63;0.63;;;;;;;11.04;100.00;101680.97;5072578;28;20206;-72
2022/11/12 03:53:27;;;;;;;0.75;0.75;;;;;;;10.90;100.00;101675.25;5071259;28;20722;-72
2022/11/12 03:55:54;;;;;;;0.60;0.60;;;;;;;10.79;100.00;101679.13;5039476;28;20233;-72
2022/11/12 03:58:21;;;;;;;0.70;0.70;;;;;;;10.60;100.00;101645.50;5080318;28;20191;-76
2022/11/12 04:00:47;;;;;;;0.70;0.70;;;;;;;10.68;100.00;101668.34;5091124;28;20229;-73
2022/11/12 04:03:14;;;;;;;0.60;0.60;;;;;;;10.82;100.00;101684.44;5078490;28;20202;-72
2022/11/12 04:08:38;;;;;;;0.60;0.60;;;;;;;10.80;100.00;101668.84;5051261;28;20206;-72
2022/11/12 04:11:07;;;;;;;0.60;0.60;;;;;;;10.87;100.00;101677.75;5059653;28;20214;-73
2022/11/12 04:13:33;;;;;;;1.00;1.00;;;;;;;10.84;100.00;101680.22;5076103;28;20626;-72
2022/11/12 04:21:56;;;;;;;0.60;0.60;;;;;;;10.90;100.00;101683.94;5085631;28;20198;-72
2022/11/12 04:27:14;;;;;;;0.67;0.67;;;;;;;10.77;100.00;101680.81;5073065;28;20613;-73
2022/11/12 04:32:26;;;;;;;0.57;0.57;;;;;;;10.70;100.00;101679.66;5071180;28;20233;-73
2022/11/12 04:34:54;;;;;;;0.60;0.60;;;;;;;10.52;100.00;101657.31;5073575;28;20209;-73
2022/11/12 04:37:24;;;;;;;0.70;0.70;;;;;;;10.70;100.00;101683.97;5070923;28;20205;-73
2022/11/12 04:39:52;;;;;;;0.80;0.80;;;;;;;10.63;100.00;101684.56;5077791;28;20201;-72
2022/11/12 04:45:06;;;;;;;0.60;0.60;;;;;;;10.42;100.00;101654.31;5050757;28;20206;-71
2022/11/12 04:47:35;;;;;;;0.60;0.60;;;;;;;10.61;100.00;101686.19;5073112;28;20607;-72
2022/11/12 04:50:04;;;;;;;0.90;0.90;;;;;;;10.62;100.00;101681.06;5074121;28;20199;-72
2022/11/12 04:52:32;;;;;;;0.60;0.60;;;;;;;10.64;100.00;101688.91;5066562;28;20195;-73
2022/11/12 04:54:59;;;;;;;0.60;0.60;;;;;;;10.60;100.00;101679.22;5069547;28;20605;-72
2022/11/12 04:57:26;;;;;;;0.90;0.90;;;;;;;10.67;100.00;101683.81;5071477;28;20209;-72
2022/11/12 04:59:53;;;;;;;1.07;1.07;;;;;;;10.70;100.00;101683.97;5070639;28;20238;-72
2022/11/12 05:02:20;;;;;;;1.08;1.08;;;;;;;10.18;100.00;101601.47;5071741;28;20194;-72
2022/11/12 05:04:47;;;;;;;0.80;0.80;;;;;;;10.77;100.00;101692.03;5069463;28;20679;-72
2022/11/12 05:07:15;;;;;;;0.70;0.70;;;;;;;10.76;100.00;101690.28;5070756;28;20590;-72
2022/11/12 05:09:43;;;;;;;0.70;0.70;;;;;;;10.86;100.00;101700.22;5070064;28;20199;-72
2022/11/12 05:12:10;;;;;;;0.83;0.83;;;;;;;10.89;100.00;101702.03;5069536;28;20208;-73
2022/11/12 05:14:37;;;;;;;0.60;0.60;;;;;;;10.80;100.00;101683.50;5070080;28;20203;-73
2022/11/12 05:17:04;;;;;;;0.50;0.50;;;;;;;10.96;100.00;101704.03;5071306;28;20605;-73
2022/11/12 05:19:31;;;;;;;0.82;0.82;;;;;;;11.15;100.00;101716.03;5073355;28;20202;-73
2022/11/12 05:22:07;;;;;;;0.70;0.70;;;;;;;11.26;100.00;101715.63;5067357;28;20917;-73
2022/11/12 05:24:39;;;;;;;0.97;0.97;;;;;;;11.28;100.00;101723.47;5070007;28;20202;-73
2022/11/12 05:27:09;;;;;;;0.50;0.50;;;;;;;11.39;100.00;101736.03;5072385;28;20568;-73
2022/11/12 05:29:37;;;;;;;1.53;1.43;;;;;;;11.40;100.00;101737.81;5067444;28;20198;-73
2022/11/12 05:32:04;;;;;;;1.00;1.00;;;;;;;11.49;100.00;101738.97;5070166;28;20239;-73
2022/11/12 05:34:31;;;;;;;0.50;0.50;;;;;;;11.53;100.00;101728.75;5071135;28;20195;-73
2022/11/12 05:36:58;;;;;;;0.80;0.80;;;;;;;11.61;100.00;101740.31;5069693;28;20222;-73
2022/11/12 05:39:25;;;;;;;0.70;0.70;;;;;;;11.71;100.00;101742.47;5071243;28;20191;-72
2022/11/12 05:41:53;;;;;;;0.80;0.80;;;;;;;11.73;100.00;101750.34;5073645;28;20203;-72
2022/11/12 05:44:21;;;;;;;0.60;0.60;;;;;;;11.78;100.00;101751.38;5073168;28;20195;-72
2022/11/12 05:46:49;;;;;;;0.55;0.55;;;;;;;11.60;100.00;101729.88;5073342;28;20207;-74
2022/11/12 05:49:16;;;;;;;0.70;0.70;;;;;;;11.75;100.00;101759.94;5049749;28;20199;-73
2022/11/12 05:51:43;;;;;;;0.50;0.50;;;;;;;11.79;100.00;101756.63;5076591;28;20294;-73
2022/11/12 05:54:10;;;;;;;0.60;0.60;;;;;;;11.84;100.00;101756.81;5073437;28;20195;-73
2022/11/12 05:56:37;;;;;;;0.60;0.60;;;;;;;11.83;100.00;101747.22;5068080;28;20230;-74
2022/11/12 05:59:06;;;;;;;0.68;0.68;;;;;;;12.09;100.00;101772.47;5073390;28;20206;-73
2022/11/12 06:01:37;;;;;;;0.60;0.60;;;;;;;11.99;100.00;101756.44;5040528;28;20237;-72
2022/11/12 06:04:04;;;;;;;0.60;0.60;;;;;;;11.96;100.00;101759.84;5060509;28;20202;-73
2022/11/12 06:06:30;;;;;;;0.60;0.60;;;;;;;12.14;100.00;101757.00;5073771;28;20214;-73
2022/11/12 06:08:57;;;;;;;0.50;0.50;;;;;;;12.20;100.00;101771.09;5073468;28;20203;-73
2022/11/12 06:11:24;;;;;;;0.68;0.68;;;;;;;12.31;100.00;101766.28;5092508;28;20206;-73
2022/11/12 06:13:51;;;;;;;0.43;0.43;;;;;;;11.91;100.00;101696.41;5092900;28;20202;-73
2022/11/12 06:16:17;;;;;;;0.80;0.80;;;;;;;12.46;100.00;101789.34;5093468;28;20226;-74
2022/11/12 06:18:46;;;;;;;0.60;0.60;;;;;;;12.50;100.00;101796.44;5082493;28;20206;-74
2022/11/12 06:21:22;;;;;;;0.82;0.82;;;;;;;12.39;100.00;101780.44;5084724;28;20190;-73
2022/11/12 06:23:53;;;;;;;0.90;0.90;;;;;;;12.35;100.00;101770.75;5079510;28;20275;-72
2022/11/12 06:26:21;;;;;;;0.60;0.60;;;;;;;12.42;100.00;101799.66;5083820;28;20209;-74
2022/11/12 06:28:48;;;;;;;0.90;0.90;;;;;;;12.39;100.00;101806.47;5070872;28;20251;-72
2022/11/12 06:31:16;;;;;;;0.60;0.60;;;;;;;12.42;100.00;101799.66;5053995;28;20207;-72
2022/11/12 06:33:43;;;;;;;0.70;0.70;;;;;;;12.20;100.00;101768.50;5056469;28;20227;-72
2022/11/12 06:36:13;;;;;;;0.70;0.70;;;;;;;12.49;100.00;101786.84;5068589;28;20321;-72
2022/11/12 06:38:41;;;;;;;1.13;1.13;;;;;;;12.13;100.00;101711.91;5058398;28;20203;-72
2022/11/12 06:41:10;;;;;;;0.93;0.80;;;;;;;12.66;100.00;101794.44;5076959;28;20256;-72
2022/11/12 06:43:38;;;;;;;1.35;1.35;;;;;;;12.63;100.00;101788.19;5072374;28;20202;-73
2022/11/12 06:46:07;;;;;;;4.30;1.92;;;;;;;12.71;100.00;101797.16;5062989;28;20214;-70
2022/11/12 06:48:34;;;;;;;1.10;1.10;;;;;;;12.83;100.00;101787.16;5069735;28;20205;-73
2022/11/12 06:51:07;;;;;;;1.98;1.85;;;;;;;13.13;100.00;101801.19;5071120;28;20207;-71
2022/11/12 06:53:35;;;;;;;0.80;0.80;;;;;;;12.97;100.00;101811.03;5064632;28;20211;-72
2022/11/12 06:56:03;;;;;;;0.60;0.60;;;;;;;12.75;100.00;101825.06;5073187;28;20228;-72
2022/11/12 06:58:30;;;;;;;1.20;1.20;;;;;;;12.88;100.00;101819.44;5063025;28;20265;-71
2022/11/12 07:00:57;;;;;;;0.82;0.82;;;;;;;12.86;100.00;101810.69;5020158;28;20643;-71
2022/11/12 07:03:24;;;;;;;0.70;0.70;;;;;;;12.74;100.00;101797.25;5067571;28;20198;-71
2022/11/12 07:05:51;;;;;;;0.60;0.60;;;;;;;12.89;100.00;101818.59;5069528;28;20211;-71
2022/11/12 07:08:17;;;;;;;0.70;0.70;;;;;;;12.87;100.00;101815.06;5070967;28;20202;-70
2022/11/12 07:10:45;;;;;;;0.65;0.65;;;;;;;13.00;100.00;101822.44;5067121;28;20203;-72
2022/11/12 07:13:12;;;;;;;0.60;0.60;;;;;;;13.17;100.00;101816.09;5066977;28;20192;-73
2022/11/12 07:15:39;;;;;;;0.65;0.65;;;;;;;13.08;100.00;101800.16;5053269;28;20204;-74
2022/11/12 07:18:06;;;;;;;0.60;0.60;;;;;;;13.39;100.00;101826.38;5063216;28;20208;-74
2022/11/12 07:20:33;;;;;;;0.93;0.93;;;;;;;13.43;100.00;101832.56;5057559;28;20218;-73
2022/11/12 07:23:00;;;;;;;1.02;1.02;;;;;;;13.35;100.00;101827.09;5059608;28;20218;-74
2022/11/12 07:25:27;;;;;;;0.65;0.65;;;;;;;13.51;100.00;101835.41;5070542;28;20245;-71
2022/11/12 07:27:55;;;;;;;0.60;0.60;;;;;;;13.34;100.00;101825.31;5066182;28;20206;-74
2022/11/12 07:30:22;;;;;;;0.65;0.65;;;;;;;13.07;100.00;101819.22;5069673;28;20263;-72
2022/11/12 07:32:49;;;;;;;0.60;0.60;;;;;;;13.25;100.00;101834.59;5064369;28;20237;-73
2022/11/12 07:35:16;;;;;;;0.80;0.80;;;;;;;13.20;100.00;101813.59;5061023;28;20192;-72
2022/11/12 07:37:42;;;;;;;0.90;0.90;;;;;;;13.40;100.00;101816.84;5056554;28;20223;-71
2022/11/12 07:40:10;;;;;;;0.60;0.60;;;;;;;13.62;100.00;101821.88;5066207;28;20203;-73
2022/11/12 07:42:37;;;;;;;1.05;1.05;;;;;;;14.01;100.00;101832.59;5034632;28;20191;-72
2022/11/12 07:45:06;;;;;;;0.90;0.90;;;;;;;14.10;100.00;101840.69;5070149;28;20202;-72
2022/11/12 07:47:32;;;;;;;0.55;0.55;;;;;;;14.08;100.00;101845.00;5069144;28;20201;-71
2022/11/12 07:49:59;;;;;;;0.77;0.77;;;;;;;14.04;100.00;101848.34;5061106;28;20207;-71
2022/11/12 07:52:26;;;;;;;0.60;0.60;;;;;;;14.15;100.00;101846.94;5070400;28;20223;-72
2022/11/12 07:54:53;;;;;;;0.60;0.60;;;;;;;14.25;100.00;101845.47;5061875;28;20203;-71
2022/11/12 07:57:20;;;;;;;1.40;1.40;;;;;;;14.12;100.00;101852.06;5072320;28;20222;-73
2022/11/12 07:59:46;;;;;;;0.60;0.60;;;;;;;13.82;100.00;101843.31;5069455;28;21392;-73
2022/11/12 08:02:15;;;;;;;1.05;1.05;;;;;;;13.77;100.00;101831.84;5062595;28;20202;-73
2022/11/12 08:04:41;;;;;;;5.20;1.55;;;;;;;13.81;100.00;101842.44;5061912;28;20209;-72
2022/11/12 08:07:08;;;;;;;1.67;1.67;;;;;;;13.87;100.00;101842.63;5069449;28;20214;-74
2022/11/12 08:09:35;;;;;;;0.70;0.70;;;;;;;13.96;100.00;101852.44;5066954;28;20663;-73
2022/11/12 08:12:02;;;;;;;0.95;0.95;;;;;;;14.05;100.00;101854.44;5070007;28;20198;-73
2022/11/12 08:14:28;;;;;;;0.80;0.80;;;;;;;13.95;100.00;101819.38;5069673;28;20207;-73
2022/11/12 08:16:55;;;;;;;0.50;0.50;;;;;;;14.17;100.00;101871.31;5070049;28;20222;-73
2022/11/12 08:19:23;;;;;;;0.60;0.60;;;;;;;14.26;100.00;101869.00;5070052;28;20214;-74
2022/11/12 08:21:50;;;;;;;0.68;0.68;;;;;;;14.13;100.00;101872.06;5070175;28;20226;-73
2022/11/12 08:24:17;;;;;;;0.50;0.50;;;;;;;14.05;100.00;101868.38;5070197;28;20213;-72
2022/11/12 08:26:44;;;;;;;0.60;0.60;;;;;;;14.16;100.00;101860.88;5069409;28;20198;-73
2022/11/12 08:29:10;;;;;;;4.13;1.58;;;;;;;14.33;100.00;101865.72;5061390;28;20207;-73
2022/11/12 08:31:37;;;;;;;0.90;0.90;;;;;;;14.65;100.00;101886.63;5063824;28;20210;-74
2022/11/12 08:34:10;;;;;;;0.70;0.70;;;;;;;14.89;100.00;101882.06;5050757;28;20199;-75
2022/11/12 08:36:40;;;;;;;0.60;0.60;;;;;;;14.63;100.00;101888.31;5058710;28;20222;-73
2022/11/12 08:39:07;;;;;;;0.82;0.82;;;;;;;14.42;100.00;101879.88;5070056;28;20286;-73
2022/11/12 08:41:34;;;;;;;0.95;0.95;;;;;;;14.72;100.00;101904.25;5069821;28;20575;-73
2022/11/12 08:44:01;;;;;;;0.60;0.60;;;;;;;14.89;100.00;101908.19;5066248;28;20788;-72
2022/11/12 08:46:28;;;;;;;1.27;1.27;;;;;;;14.31;100.00;101895.19;5055151;28;20248;-73
2022/11/12 08:48:54;;;;;;;0.70;0.70;;;;;;;13.78;100.00;101828.41;5068426;28;20199;-73
2022/11/12 08:51:21;;;;;;;0.60;0.60;;;;;;;14.11;100.00;101912.00;5060788;28;20236;-73
2022/11/12 08:53:50;;;;;;;0.82;0.82;;;;;;;14.39;100.00;101909.41;5071591;28;20209;-72
2022/11/12 08:56:16;;;;;;;0.55;0.55;;;;;;;14.16;100.00;101895.63;5055981;28;20206;-72
2022/11/12 08:58:43;;;;;;;3.20;1.13;;;;;;;13.72;100.00;101896.03;5067123;28;20675;-73
2022/11/12 09:01:10;;;;;;;0.57;0.57;;;;;;;13.95;100.00;101897.59;5064440;28;20204;-73
2022/11/12 09:03:37;;;;;;;0.70;0.70;;;;;;;13.93;100.00;101912.34;5054336;28;20213;-73
2022/11/12 09:06:05;;;;;;;0.60;0.60;;;;;;;13.78;100.00;101883.19;5059796;28;20213;-72
2022/11/12 09:08:34;;;;;;;0.60;0.60;;;;;;;13.72;100.00;101909.06;5049859;28;20199;-74
2022/11/12 09:11:03;;;;;;;0.80;0.80;;;;;;;13.75;100.00;101904.84;5063660;28;20593;-73
2022/11/12 09:13:29;;;;;;;0.80;0.80;;;;;;;14.25;100.00;101882.00;5053053;28;20200;-73
2022/11/12 09:16:01;;;;;;;0.50;0.50;;;;;;;14.47;100.00;101887.00;5072581;28;20209;-73
2022/11/12 09:18:28;;;;;;;0.60;0.60;;;;;;;14.38;100.00;101864.13;5053803;28;20357;-72
2022/11/12 09:21:00;;;;;;;0.60;0.60;;;;;;;14.56;100.00;101875.94;5070105;28;20206;-72
2022/11/12 09:23:27;;;;;;;0.70;0.70;;;;;;;14.94;100.00;101910.94;5055511;28;20242;-73
2022/11/12 09:25:55;;;;;;;0.60;0.60;;;;;;;14.61;100.00;101890.91;5063614;28;20213;-72
2022/11/12 09:28:24;;;;;;;0.52;0.52;;;;;;;14.76;100.00;101901.75;5064839;28;20646;-71
2022/11/12 09:30:52;;;;;;;0.52;0.52;;;;;;;14.74;100.00;101916.50;5068320;28;20769;-73
2022/11/12 09:33:21;;;;;;;0.60;0.60;;;;;;;14.86;100.00;101902.88;5059117;28;20634;-74
2022/11/12 09:35:49;;;;;;;0.80;0.80;;;;;;;14.64;100.00;101911.84;5060670;28;20206;-73
2022/11/12 09:38:16;;;;;;;0.60;0.60;;;;;;;14.66;100.00;101898.88;5077368;28;20219;-73
2022/11/12 09:41:05;;;;;;;0.60;0.60;;;;;;;14.74;100.00;101913.88;5082441;28;20285;-73
2022/11/12 09:43:37;;;;;;;0.82;0.82;;;;;;;14.33;100.00;101906.59;5084814;28;20216;-73
2022/11/12 09:46:09;;;;;;;0.80;0.80;;;;;;;14.53;100.00;101907.16;5073169;28;20213;-73
2022/11/12 09:48:40;;;;;;;0.85;0.85;;;;;;;14.97;100.00;101916.22;5066772;28;20215;-73
2022/11/12 09:51:15;;;;;;;0.60;0.60;;;;;;;15.32;100.00;101916.28;5066620;28;20202;-72
2022/11/12 09:53:48;;;;;;;0.88;0.88;;;;;;;15.11;100.00;101889.63;5066836;28;21015;-73
2022/11/12 09:56:19;;;;;;;0.60;0.60;;;;;;;15.12;100.00;101917.53;5059431;28;20195;-73
2022/11/12 09:58:47;;;;;;;0.60;0.60;;;;;;;15.08;100.00;101905.22;5030209;28;20211;-73
2022/11/12 10:01:16;;;;;;;0.60;0.60;;;;;;;14.90;100.00;101904.75;5053493;28;20211;-74
2022/11/12 10:03:51;;;;;;;0.50;0.50;;;;;;;14.89;100.00;101884.69;5055028;28;20288;-73
2022/11/12 10:06:21;;;;;;;0.82;0.82;;;;;;;14.91;100.00;101901.25;5079146;28;20669;-72
2022/11/12 10:08:52;;;;;;;0.43;0.43;;;;;;;14.69;100.00;101872.81;5059462;28;20257;-75
2022/11/12 10:14:43;;;;;;;0.60;0.60;;;;;;;15.21;100.00;101872.44;5064288;28;20277;-77
2022/11/12 10:17:15;;;;;;;1.50;1.50;;;;;;;15.11;100.00;101879.16;5070057;28;20230;-76
2022/11/12 10:19:53;;;;;;;0.65;0.65;;;;;;;15.04;100.00;101861.56;5061439;28;21044;-71
2022/11/12 10:22:37;;;;;;;0.57;0.57;;;;;;;15.08;100.00;101879.09;5056570;28;20678;-73
2022/11/12 10:25:14;;;;;;;0.98;0.98;;;;;;;14.43;100.00;101866.00;5059484;28;20719;-73
2022/11/12 10:27:42;;;;;;;0.68;0.68;;;;;;;14.56;100.00;101870.69;5071447;28;20214;-74
2022/11/12 10:30:17;;;;;;;0.80;0.80;;;;;;;14.56;100.00;101849.81;5071799;28;20207;-76
2022/11/12 10:32:45;;;;;;;0.50;0.50;;;;;;;14.61;100.00;101856.94;5071095;28;20292;-72
2022/11/12 10:35:16;;;;;;;0.50;0.50;;;;;;;14.44;100.00;101860.84;5072328;28;20360;-72
2022/11/12 10:37:47;;;;;;;0.60;0.60;;;;;;;14.32;100.00;101845.69;5071274;28;20222;-71
2022/11/12 10:40:31;;;;;;;0.90;0.90;;;;;;;14.46;100.00;101855.63;5073999;28;20230;-72
2022/11/12 10:43:00;;;;;;;1.48;1.00;;;;;;;14.58;100.00;101869.94;5082101;28;20643;-72
2022/11/12 10:45:28;;;;;;;0.57;0.57;;;;;;;14.53;100.00;101845.41;5074530;28;20206;-72
2022/11/12 10:47:55;;;;;;;1.00;1.00;;;;;;;14.95;100.00;101863.94;5071234;28;20206;-72
2022/11/12 10:50:27;;;;;;;0.60;0.60;;;;;;;15.18;100.00;101862.78;5074241;28;20287;-72
2022/11/12 10:53:00;;;;;;;0.50;0.50;;;;;;;15.43;100.00;101872.13;5075583;28;20214;-72
2022/11/12 10:55:29;;;;;;;1.13;1.13;;;;;;;14.92;100.00;101876.91;5071782;28;20202;-72
2022/11/12 10:58:22;;;;;;;2.72;1.67;;;;;;;15.12;100.00;101870.50;5071217;28;20254;-71
2022/11/12 11:00:57;;;;;;;0.60;0.60;;;;;;;15.10;100.00;101835.59;5077050;28;20280;-71
2022/11/12 11:03:25;;;;;;;0.60;0.60;;;;;;;15.25;100.00;101869.06;5074326;28;20207;-71
2022/11/12 11:05:55;;;;;;;0.70;0.70;;;;;;;15.34;100.00;101862.31;5079900;28;20207;-71
2022/11/12 11:08:34;;;;;;;2.63;2.45;;;;;;;15.08;100.00;101873.88;5069615;28;20209;-71
2022/11/12 11:11:17;;;;;;;0.70;0.70;;;;;;;15.01;100.00;101885.00;5066561;28;20217;-71
2022/11/12 11:13:45;;;;;;;0.60;0.60;;;;;;;14.58;100.00;101889.94;5067482;28;20602;-71
2022/11/12 11:16:15;;;;;;;0.60;0.60;;;;;;;14.70;100.00;101872.84;5072376;28;20205;-69
2022/11/12 11:18:47;;;;;;;1.00;1.00;;;;;;;14.69;100.00;101873.72;5071022;28;20219;-70
2022/11/12 11:21:30;;;;;;;0.95;0.95;;;;;;;14.84;100.00;101831.41;5052054;28;20203;-72
2022/11/12 11:24:03;;;;;;;2.75;1.20;;;;;;;14.70;100.00;101854.56;5061468;28;20215;-74
2022/11/12 11:26:42;;;;;;;0.60;0.60;;;;;;;14.98;100.00;101876.22;5057679;28;20198;-72
2022/11/12 11:29:29;;;;;;;0.70;0.70;;;;;;;14.56;100.00;101861.16;5029365;28;20203;-74
2022/11/12 11:32:04;;;;;;;0.60;0.60;;;;;;;14.77;100.00;101859.13;5022273;28;20235;-72
2022/11/12 11:34:42;;;;;;;0.60;0.60;;;;;;;14.21;100.00;101862.75;5050499;28;20229;-73
2022/11/12 11:37:25;;;;;;;0.70;0.70;;;;;;;13.79;100.00;101841.50;5065810;28;20227;-74
2022/11/12 11:40:03;;;;;;;0.57;0.57;;;;;;;14.10;100.00;101853.72;5068977;28;20226;-72
2022/11/12 11:42:48;;;;;;;1.13;1.13;;;;;;;13.96;100.00;101844.63;5062036;28;20285;-72
2022/11/12 11:45:18;;;;;;;1.05;1.05;;;;;;;14.22;100.00;101874.06;5073741;28;20208;-75
2022/11/12 11:47:53;;;;;;;5.50;2.90;;;;;;;14.23;100.00;101868.88;5070870;28;20195;-75